sensor_id;sensor_type;location;lat;lon;timestamp;P1;durP1;ratioP1;P2;durP2;ratioP2
71715;SDS011;59568;52.128;5.434;2022-12-05T00:03:50;29.20;;;12.77;;
71715;SDS011;59568;52.128;5.434;2022-12-05T00:06:19;30.52;;;12.55;;
71715;SDS011;59568;52.128;5.434;2022-12-05T00:08:47;30.87;;;13.03;;
71715;SDS011;59568;52.128;5.434;2022-12-05T00:11:22;30.05;;;12.60;;
71715;SDS011;59568;52.128;5.434;2022-12-05T00:13:51;26.35;;;12.60;;
71715;SDS011;59568;52.128;5.434;2022-12-05T00:16:20;28.00;;;12.45;;
71715;SDS011;59568;52.128;5.434;2022-12-05T00:18:49;30.65;;;12.88;;
71715;SDS011;59568;52.128;5.434;2022-12-05T00:21:20;26.80;;;11.73;;
71715;SDS011;59568;52.128;5.434;2022-12-05T00:23:51;29.92;;;12.65;;
71715;SDS011;59568;52.128;5.434;2022-12-05T00:26:19;29.48;;;12.48;;
71715;SDS011;59568;52.128;5.434;2022-12-05T00:28:47;30.52;;;13.38;;
71715;SDS011;59568;52.128;5.434;2022-12-05T00:31:21;27.38;;;12.05;;
71715;SDS011;59568;52.128;5.434;2022-12-05T00:33:50;27.07;;;11.77;;
71715;SDS011;59568;52.128;5.434;2022-12-05T00:36:19;30.40;;;12.93;;
71715;SDS011;59568;52.128;5.434;2022-12-05T00:38:48;27.00;;;12.00;;
71715;SDS011;59568;52.128;5.434;2022-12-05T00:41:19;27.98;;;11.88;;
71715;SDS011;59568;52.128;5.434;2022-12-05T00:43:48;29.70;;;12.65;;
71715;SDS011;59568;52.128;5.434;2022-12-05T00:46:18;29.20;;;12.97;;
71715;SDS011;59568;52.128;5.434;2022-12-05T00:48:46;33.28;;;13.70;;
71715;SDS011;59568;52.128;5.434;2022-12-05T00:51:15;28.63;;;11.75;;
71715;SDS011;59568;52.128;5.434;2022-12-05T00:53:46;30.35;;;13.15;;
71715;SDS011;59568;52.128;5.434;2022-12-05T00:56:15;28.08;;;12.77;;
71715;SDS011;59568;52.128;5.434;2022-12-05T00:58:43;30.30;;;12.40;;
71715;SDS011;59568;52.128;5.434;2022-12-05T01:01:13;33.13;;;13.15;;
71715;SDS011;59568;52.128;5.434;2022-12-05T01:03:43;34.67;;;13.60;;
71715;SDS011;59568;52.128;5.434;2022-12-05T01:06:12;30.63;;;12.73;;
71715;SDS011;59568;52.128;5.434;2022-12-05T01:08:40;27.85;;;13.38;;
71715;SDS011;59568;52.128;5.434;2022-12-05T01:11:08;29.77;;;12.37;;
71715;SDS011;59568;52.128;5.434;2022-12-05T01:13:36;26.20;;;12.55;;
71715;SDS011;59568;52.128;5.434;2022-12-05T01:16:03;30.02;;;13.90;;
71715;SDS011;59568;52.128;5.434;2022-12-05T01:18:30;30.30;;;13.32;;
71715;SDS011;59568;52.128;5.434;2022-12-05T01:20:59;31.73;;;13.10;;
71715;SDS011;59568;52.128;5.434;2022-12-05T01:23:25;30.13;;;13.47;;
71715;SDS011;59568;52.128;5.434;2022-12-05T01:25:52;28.60;;;12.38;;
71715;SDS011;59568;52.128;5.434;2022-12-05T01:28:19;30.65;;;12.57;;
71715;SDS011;59568;52.128;5.434;2022-12-05T01:30:47;29.40;;;12.27;;
71715;SDS011;59568;52.128;5.434;2022-12-05T01:33:16;29.05;;;13.25;;
71715;SDS011;59568;52.128;5.434;2022-12-05T01:35:43;28.53;;;12.40;;
71715;SDS011;59568;52.128;5.434;2022-12-05T01:38:10;30.83;;;14.05;;
71715;SDS011;59568;52.128;5.434;2022-12-05T01:40:38;25.88;;;12.07;;
71715;SDS011;59568;52.128;5.434;2022-12-05T01:43:24;26.33;;;12.75;;
71715;SDS011;59568;52.128;5.434;2022-12-05T01:45:51;30.48;;;13.35;;
71715;SDS011;59568;52.128;5.434;2022-12-05T01:48:19;30.87;;;12.93;;
71715;SDS011;59568;52.128;5.434;2022-12-05T01:50:51;26.25;;;11.98;;
71715;SDS011;59568;52.128;5.434;2022-12-05T01:53:18;29.95;;;13.25;;
71715;SDS011;59568;52.128;5.434;2022-12-05T01:55:46;27.73;;;12.52;;
71715;SDS011;59568;52.128;5.434;2022-12-05T01:58:15;28.08;;;12.10;;
71715;SDS011;59568;52.128;5.434;2022-12-05T02:00:43;27.80;;;13.37;;
71715;SDS011;59568;52.128;5.434;2022-12-05T02:03:11;29.35;;;13.00;;
71715;SDS011;59568;52.128;5.434;2022-12-05T02:05:43;26.30;;;11.82;;
71715;SDS011;59568;52.128;5.434;2022-12-05T02:08:14;26.95;;;11.50;;
71715;SDS011;59568;52.128;5.434;2022-12-05T02:10:42;30.50;;;12.77;;
71715;SDS011;59568;52.128;5.434;2022-12-05T02:13:19;33.47;;;12.70;;
71715;SDS011;59568;52.128;5.434;2022-12-05T02:16:08;23.13;;;10.13;;
71715;SDS011;59568;52.128;5.434;2022-12-05T02:24:52;24.73;;;12.35;;
71715;SDS011;59568;52.128;5.434;2022-12-05T02:28:03;30.57;;;12.30;;
71715;SDS011;59568;52.128;5.434;2022-12-05T02:30:53;23.38;;;11.32;;
71715;SDS011;59568;52.128;5.434;2022-12-05T02:38:48;28.90;;;12.15;;
71715;SDS011;59568;52.128;5.434;2022-12-05T02:41:20;26.37;;;11.73;;
71715;SDS011;59568;52.128;5.434;2022-12-05T02:46:56;23.50;;;10.88;;
71715;SDS011;59568;52.128;5.434;2022-12-05T02:49:27;26.65;;;12.45;;
71715;SDS011;59568;52.128;5.434;2022-12-05T02:51:57;28.20;;;12.20;;
71715;SDS011;59568;52.128;5.434;2022-12-05T02:54:28;28.97;;;12.07;;
71715;SDS011;59568;52.128;5.434;2022-12-05T02:56:59;27.63;;;11.52;;
71715;SDS011;59568;52.128;5.434;2022-12-05T02:59:27;26.73;;;11.38;;
71715;SDS011;59568;52.128;5.434;2022-12-05T03:01:54;25.27;;;11.50;;
71715;SDS011;59568;52.128;5.434;2022-12-05T03:04:22;24.73;;;10.75;;
71715;SDS011;59568;52.128;5.434;2022-12-05T03:07:07;27.27;;;11.57;;
71715;SDS011;59568;52.128;5.434;2022-12-05T03:09:50;23.30;;;10.80;;
71715;SDS011;59568;52.128;5.434;2022-12-05T03:12:25;23.30;;;11.05;;
71715;SDS011;59568;52.128;5.434;2022-12-05T03:15:07;24.30;;;10.25;;
71715;SDS011;59568;52.128;5.434;2022-12-05T03:20:42;24.00;;;11.40;;
71715;SDS011;59568;52.128;5.434;2022-12-05T03:23:19;25.85;;;10.23;;
71715;SDS011;59568;52.128;5.434;2022-12-05T03:26:09;24.58;;;10.50;;
71715;SDS011;59568;52.128;5.434;2022-12-05T03:31:44;27.02;;;10.98;;
71715;SDS011;59568;52.128;5.434;2022-12-05T03:34:19;22.30;;;10.47;;
71715;SDS011;59568;52.128;5.434;2022-12-05T03:36:56;25.17;;;10.50;;
71715;SDS011;59568;52.128;5.434;2022-12-05T03:39:30;21.95;;;11.32;;
71715;SDS011;59568;52.128;5.434;2022-12-05T03:42:14;22.48;;;10.38;;
71715;SDS011;59568;52.128;5.434;2022-12-05T03:44:51;24.35;;;10.65;;
71715;SDS011;59568;52.128;5.434;2022-12-05T03:50:20;24.27;;;9.80;;
71715;SDS011;59568;52.128;5.434;2022-12-05T03:52:55;21.10;;;9.68;;
71715;SDS011;59568;52.128;5.434;2022-12-05T03:55:46;23.95;;;10.55;;
71715;SDS011;59568;52.128;5.434;2022-12-05T03:58:26;20.65;;;9.68;;
71715;SDS011;59568;52.128;5.434;2022-12-05T04:01:00;23.07;;;9.97;;
71715;SDS011;59568;52.128;5.434;2022-12-05T04:03:32;25.02;;;10.43;;
71715;SDS011;59568;52.128;5.434;2022-12-05T04:06:28;24.55;;;10.10;;
71715;SDS011;59568;52.128;5.434;2022-12-05T04:08:57;23.02;;;10.18;;
71715;SDS011;59568;52.128;5.434;2022-12-05T04:11:28;22.23;;;9.75;;
71715;SDS011;59568;52.128;5.434;2022-12-05T04:14:00;23.73;;;10.17;;
71715;SDS011;59568;52.128;5.434;2022-12-05T04:16:37;21.48;;;10.38;;
71715;SDS011;59568;52.128;5.434;2022-12-05T04:19:28;19.75;;;9.65;;
71715;SDS011;59568;52.128;5.434;2022-12-05T04:22:42;25.58;;;9.85;;
71715;SDS011;59568;52.128;5.434;2022-12-05T04:25:10;22.40;;;10.00;;
71715;SDS011;59568;52.128;5.434;2022-12-05T04:28:01;21.07;;;9.90;;
71715;SDS011;59568;52.128;5.434;2022-12-05T04:31:01;22.48;;;10.27;;
71715;SDS011;59568;52.128;5.434;2022-12-05T04:36:14;24.10;;;11.10;;
71715;SDS011;59568;52.128;5.434;2022-12-05T04:38:45;20.77;;;10.27;;
71715;SDS011;59568;52.128;5.434;2022-12-05T04:41:23;23.47;;;10.40;;
71715;SDS011;59568;52.128;5.434;2022-12-05T04:44:28;23.42;;;10.45;;
71715;SDS011;59568;52.128;5.434;2022-12-05T04:50:03;25.33;;;10.70;;
71715;SDS011;59568;52.128;5.434;2022-12-05T05:37:17;25.90;;;11.45;;
71715;SDS011;59568;52.128;5.434;2022-12-05T06:24:04;20.07;;;9.67;;
71715;SDS011;59568;52.128;5.434;2022-12-05T06:26:34;19.98;;;9.85;;
71715;SDS011;59568;52.128;5.434;2022-12-05T06:35:29;23.70;;;9.43;;
71715;SDS011;59568;52.128;5.434;2022-12-05T06:44:28;20.60;;;10.00;;
71715;SDS011;59568;52.128;5.434;2022-12-05T06:47:03;22.92;;;9.88;;
71715;SDS011;59568;52.128;5.434;2022-12-05T06:55:53;21.70;;;9.98;;
71715;SDS011;59568;52.128;5.434;2022-12-05T06:58:25;22.70;;;9.27;;
71715;SDS011;59568;52.128;5.434;2022-12-05T07:01:01;23.60;;;10.35;;
71715;SDS011;59568;52.128;5.434;2022-12-05T07:04:02;29.27;;;10.43;;
71715;SDS011;59568;52.128;5.434;2022-12-05T07:06:38;19.60;;;9.63;;
71715;SDS011;59568;52.128;5.434;2022-12-05T07:09:23;25.20;;;10.68;;
71715;SDS011;59568;52.128;5.434;2022-12-05T07:12:27;23.08;;;8.93;;
71715;SDS011;59568;52.128;5.434;2022-12-05T07:17:45;20.40;;;9.83;;
71715;SDS011;59568;52.128;5.434;2022-12-05T07:23:00;26.13;;;10.35;;
71715;SDS011;59568;52.128;5.434;2022-12-05T07:25:29;23.10;;;10.82;;
71715;SDS011;59568;52.128;5.434;2022-12-05T07:30:34;27.97;;;11.40;;
71715;SDS011;59568;52.128;5.434;2022-12-05T07:33:19;23.48;;;10.75;;
71715;SDS011;59568;52.128;5.434;2022-12-05T07:35:47;24.20;;;10.00;;
71715;SDS011;59568;52.128;5.434;2022-12-05T07:38:14;23.88;;;10.80;;
71715;SDS011;59568;52.128;5.434;2022-12-05T07:40:41;25.30;;;10.18;;
71715;SDS011;59568;52.128;5.434;2022-12-05T07:43:08;23.60;;;10.57;;
71715;SDS011;59568;52.128;5.434;2022-12-05T07:45:36;20.85;;;9.60;;
71715;SDS011;59568;52.128;5.434;2022-12-05T07:48:03;22.35;;;9.60;;
71715;SDS011;59568;52.128;5.434;2022-12-05T07:50:30;20.55;;;10.45;;
71715;SDS011;59568;52.128;5.434;2022-12-05T07:52:58;19.73;;;9.38;;
71715;SDS011;59568;52.128;5.434;2022-12-05T07:55:25;24.43;;;10.00;;
71715;SDS011;59568;52.128;5.434;2022-12-05T07:57:52;21.48;;;10.52;;
71715;SDS011;59568;52.128;5.434;2022-12-05T08:00:19;26.50;;;10.57;;
71715;SDS011;59568;52.128;5.434;2022-12-05T08:03:02;23.63;;;9.75;;
71715;SDS011;59568;52.128;5.434;2022-12-05T08:05:29;22.77;;;9.93;;
71715;SDS011;59568;52.128;5.434;2022-12-05T08:07:57;19.07;;;8.70;;
71715;SDS011;59568;52.128;5.434;2022-12-05T08:10:25;20.73;;;8.90;;
71715;SDS011;59568;52.128;5.434;2022-12-05T08:12:52;20.77;;;9.25;;
71715;SDS011;59568;52.128;5.434;2022-12-05T08:15:19;19.00;;;9.43;;
71715;SDS011;59568;52.128;5.434;2022-12-05T08:17:46;21.88;;;9.15;;
71715;SDS011;59568;52.128;5.434;2022-12-05T08:20:13;21.80;;;9.13;;
71715;SDS011;59568;52.128;5.434;2022-12-05T08:22:40;19.17;;;9.50;;
71715;SDS011;59568;52.128;5.434;2022-12-05T08:25:08;20.20;;;9.48;;
71715;SDS011;59568;52.128;5.434;2022-12-05T08:27:35;21.77;;;9.48;;
71715;SDS011;59568;52.128;5.434;2022-12-05T08:30:02;19.92;;;9.48;;
71715;SDS011;59568;52.128;5.434;2022-12-05T08:32:30;20.50;;;9.17;;
71715;SDS011;59568;52.128;5.434;2022-12-05T08:34:57;22.15;;;9.63;;
71715;SDS011;59568;52.128;5.434;2022-12-05T08:37:24;19.63;;;9.15;;
71715;SDS011;59568;52.128;5.434;2022-12-05T08:39:51;19.48;;;9.07;;
71715;SDS011;59568;52.128;5.434;2022-12-05T08:42:18;19.05;;;9.10;;
71715;SDS011;59568;52.128;5.434;2022-12-05T08:44:45;17.50;;;8.50;;
71715;SDS011;59568;52.128;5.434;2022-12-05T08:47:12;21.77;;;8.55;;
71715;SDS011;59568;52.128;5.434;2022-12-05T08:49:39;20.15;;;8.93;;
71715;SDS011;59568;52.128;5.434;2022-12-05T08:52:06;21.73;;;9.85;;
71715;SDS011;59568;52.128;5.434;2022-12-05T08:54:33;16.15;;;8.50;;
71715;SDS011;59568;52.128;5.434;2022-12-05T08:57:00;18.63;;;8.60;;
71715;SDS011;59568;52.128;5.434;2022-12-05T08:59:27;19.92;;;8.52;;
71715;SDS011;59568;52.128;5.434;2022-12-05T09:01:54;16.90;;;8.63;;
71715;SDS011;59568;52.128;5.434;2022-12-05T09:04:21;16.27;;;7.43;;
71715;SDS011;59568;52.128;5.434;2022-12-05T09:06:48;17.25;;;8.70;;
71715;SDS011;59568;52.128;5.434;2022-12-05T09:09:15;14.40;;;8.10;;
71715;SDS011;59568;52.128;5.434;2022-12-05T09:11:42;14.95;;;7.97;;
71715;SDS011;59568;52.128;5.434;2022-12-05T09:14:16;16.65;;;8.27;;
71715;SDS011;59568;52.128;5.434;2022-12-05T09:16:44;16.50;;;7.45;;
71715;SDS011;59568;52.128;5.434;2022-12-05T09:19:13;14.07;;;7.38;;
71715;SDS011;59568;52.128;5.434;2022-12-05T09:21:50;15.23;;;7.23;;
71715;SDS011;59568;52.128;5.434;2022-12-05T09:24:17;15.93;;;8.40;;
71715;SDS011;59568;52.128;5.434;2022-12-05T09:26:44;18.58;;;7.78;;
71715;SDS011;59568;52.128;5.434;2022-12-05T09:29:12;15.25;;;7.57;;
71715;SDS011;59568;52.128;5.434;2022-12-05T09:31:43;15.65;;;7.70;;
71715;SDS011;59568;52.128;5.434;2022-12-05T09:34:11;13.47;;;7.40;;
71715;SDS011;59568;52.128;5.434;2022-12-05T09:36:40;15.35;;;7.57;;
71715;SDS011;59568;52.128;5.434;2022-12-05T09:39:08;14.40;;;7.05;;
71715;SDS011;59568;52.128;5.434;2022-12-05T09:41:55;12.05;;;6.10;;
71715;SDS011;59568;52.128;5.434;2022-12-05T09:47:36;14.63;;;6.83;;
71715;SDS011;59568;52.128;5.434;2022-12-05T09:50:14;11.25;;;6.55;;
71715;SDS011;59568;52.128;5.434;2022-12-05T09:55:32;14.20;;;6.18;;
71715;SDS011;59568;52.128;5.434;2022-12-05T09:58:03;11.57;;;6.60;;
71715;SDS011;59568;52.128;5.434;2022-12-05T10:00:41;11.80;;;5.90;;
71715;SDS011;59568;52.128;5.434;2022-12-05T10:03:18;12.63;;;6.72;;
71715;SDS011;59568;52.128;5.434;2022-12-05T10:06:04;11.25;;;6.88;;
71715;SDS011;59568;52.128;5.434;2022-12-05T10:16:53;13.80;;;6.38;;
71715;SDS011;59568;52.128;5.434;2022-12-05T10:19:31;13.77;;;6.80;;
71715;SDS011;59568;52.128;5.434;2022-12-05T10:25:02;15.45;;;6.75;;
71715;SDS011;59568;52.128;5.434;2022-12-05T10:27:33;12.63;;;6.57;;
71715;SDS011;59568;52.128;5.434;2022-12-05T10:32:40;10.48;;;5.78;;
71715;SDS011;59568;52.128;5.434;2022-12-05T10:35:21;11.75;;;6.50;;
71715;SDS011;59568;52.128;5.434;2022-12-05T10:37:57;10.93;;;5.78;;
71715;SDS011;59568;52.128;5.434;2022-12-05T10:40:35;11.47;;;5.87;;
71715;SDS011;59568;52.128;5.434;2022-12-05T10:43:04;10.18;;;4.95;;
71715;SDS011;59568;52.128;5.434;2022-12-05T10:45:34;9.02;;;5.25;;
71715;SDS011;59568;52.128;5.434;2022-12-05T10:48:07;8.85;;;5.00;;
71715;SDS011;59568;52.128;5.434;2022-12-05T10:50:38;7.55;;;4.50;;
71715;SDS011;59568;52.128;5.434;2022-12-05T10:53:07;7.63;;;4.37;;
71715;SDS011;59568;52.128;5.434;2022-12-05T10:55:45;6.40;;;3.50;;
71715;SDS011;59568;52.128;5.434;2022-12-05T10:58:33;7.32;;;3.60;;
71715;SDS011;59568;52.128;5.434;2022-12-05T11:01:07;5.65;;;3.10;;
71715;SDS011;59568;52.128;5.434;2022-12-05T11:03:39;7.22;;;3.60;;
71715;SDS011;59568;52.128;5.434;2022-12-05T11:06:16;5.53;;;2.57;;
71715;SDS011;59568;52.128;5.434;2022-12-05T11:08:53;4.20;;;2.20;;
71715;SDS011;59568;52.128;5.434;2022-12-05T11:11:31;4.50;;;2.08;;
71715;SDS011;59568;52.128;5.434;2022-12-05T11:14:06;5.80;;;2.90;;
71715;SDS011;59568;52.128;5.434;2022-12-05T11:16:53;5.80;;;3.17;;
71715;SDS011;59568;52.128;5.434;2022-12-05T11:19:30;4.10;;;2.40;;
71715;SDS011;59568;52.128;5.434;2022-12-05T11:21:58;3.65;;;2.22;;
71715;SDS011;59568;52.128;5.434;2022-12-05T11:24:30;4.22;;;2.35;;
71715;SDS011;59568;52.128;5.434;2022-12-05T11:27:00;5.15;;;2.10;;
71715;SDS011;59568;52.128;5.434;2022-12-05T11:29:57;5.80;;;2.47;;
71715;SDS011;59568;52.128;5.434;2022-12-05T11:32:28;4.50;;;2.43;;
71715;SDS011;59568;52.128;5.434;2022-12-05T11:35:08;5.43;;;2.65;;
71715;SDS011;59568;52.128;5.434;2022-12-05T11:51:05;6.57;;;2.85;;
71715;SDS011;59568;52.128;5.434;2022-12-05T11:59:21;7.57;;;2.37;;
71715;SDS011;59568;52.128;5.434;2022-12-05T12:04:48;5.07;;;1.85;;
71715;SDS011;59568;52.128;5.434;2022-12-05T12:07:24;5.82;;;2.85;;
71715;SDS011;59568;52.128;5.434;2022-12-05T12:18:11;5.65;;;2.75;;
71715;SDS011;59568;52.128;5.434;2022-12-05T12:23:50;5.22;;;2.08;;
71715;SDS011;59568;52.128;5.434;2022-12-05T12:29:32;5.40;;;2.25;;
71715;SDS011;59568;52.128;5.434;2022-12-05T12:35:26;4.22;;;2.30;;
71715;SDS011;59568;52.128;5.434;2022-12-05T12:40:55;4.37;;;2.20;;
71715;SDS011;59568;52.128;5.434;2022-12-05T12:46:36;3.20;;;1.85;;
71715;SDS011;59568;52.128;5.434;2022-12-05T12:49:19;4.45;;;1.92;;
71715;SDS011;59568;52.128;5.434;2022-12-05T12:52:20;4.65;;;1.92;;
71715;SDS011;59568;52.128;5.434;2022-12-05T13:08:46;3.63;;;1.60;;
71715;SDS011;59568;52.128;5.434;2022-12-05T13:14:11;3.05;;;1.77;;
71715;SDS011;59568;52.128;5.434;2022-12-05T13:26:35;4.20;;;1.88;;
71715;SDS011;59568;52.128;5.434;2022-12-05T13:29:38;5.45;;;1.88;;
71715;SDS011;59568;52.128;5.434;2022-12-05T13:32:38;5.25;;;2.03;;
71715;SDS011;59568;52.128;5.434;2022-12-05T13:35:33;4.85;;;2.67;;
71715;SDS011;59568;52.128;5.434;2022-12-05T13:38:46;5.43;;;2.60;;
71715;SDS011;59568;52.128;5.434;2022-12-05T13:41:48;7.00;;;2.63;;
71715;SDS011;59568;52.128;5.434;2022-12-05T13:44:47;5.13;;;2.53;;
71715;SDS011;59568;52.128;5.434;2022-12-05T13:48:10;6.07;;;2.85;;
71715;SDS011;59568;52.128;5.434;2022-12-05T13:51:06;5.32;;;2.50;;
71715;SDS011;59568;52.128;5.434;2022-12-05T13:53:40;5.03;;;2.67;;
71715;SDS011;59568;52.128;5.434;2022-12-05T13:58:46;5.43;;;2.15;;
71715;SDS011;59568;52.128;5.434;2022-12-05T14:15:37;4.60;;;2.13;;
71715;SDS011;59568;52.128;5.434;2022-12-05T14:17:49;7.20;;;2.00;;
71715;SDS011;59568;52.128;5.434;2022-12-05T14:31:31;3.88;;;2.10;;
71715;SDS011;59568;52.128;5.434;2022-12-05T14:39:29;4.65;;;2.35;;
71715;SDS011;59568;52.128;5.434;2022-12-05T14:42:20;5.10;;;2.63;;
71715;SDS011;59568;52.128;5.434;2022-12-05T14:44:51;5.07;;;2.40;;
71715;SDS011;59568;52.128;5.434;2022-12-05T14:47:25;5.13;;;2.00;;
71715;SDS011;59568;52.128;5.434;2022-12-05T14:49:59;4.55;;;2.13;;
71715;SDS011;59568;52.128;5.434;2022-12-05T14:55:48;5.35;;;1.95;;
71715;SDS011;59568;52.128;5.434;2022-12-05T14:58:42;4.15;;;2.22;;
71715;SDS011;59568;52.128;5.434;2022-12-05T15:03:57;5.93;;;2.83;;
71715;SDS011;59568;52.128;5.434;2022-12-05T15:06:25;7.95;;;4.30;;
71715;SDS011;59568;52.128;5.434;2022-12-05T15:08:54;8.43;;;5.22;;
71715;SDS011;59568;52.128;5.434;2022-12-05T15:11:43;9.70;;;5.68;;
71715;SDS011;59568;52.128;5.434;2022-12-05T15:14:16;8.90;;;2.83;;
71715;SDS011;59568;52.128;5.434;2022-12-05T15:16:48;5.75;;;3.67;;
71715;SDS011;59568;52.128;5.434;2022-12-05T15:19:19;9.57;;;4.68;;
71715;SDS011;59568;52.128;5.434;2022-12-05T15:21:56;5.72;;;3.10;;
71715;SDS011;59568;52.128;5.434;2022-12-05T15:24:26;6.65;;;3.58;;
71715;SDS011;59568;52.128;5.434;2022-12-05T15:26:53;5.27;;;2.97;;
71715;SDS011;59568;52.128;5.434;2022-12-05T15:29:24;5.10;;;3.03;;
71715;SDS011;59568;52.128;5.434;2022-12-05T15:31:54;7.00;;;3.67;;
71715;SDS011;59568;52.128;5.434;2022-12-05T15:36:57;6.03;;;3.15;;
71715;SDS011;59568;52.128;5.434;2022-12-05T15:39:30;5.60;;;2.93;;
71715;SDS011;59568;52.128;5.434;2022-12-05T15:42:21;3.78;;;2.22;;
71715;SDS011;59568;52.128;5.434;2022-12-05T15:50:14;5.72;;;2.65;;
71715;SDS011;59568;52.128;5.434;2022-12-05T15:52:58;5.93;;;2.90;;
71715;SDS011;59568;52.128;5.434;2022-12-05T15:55:49;6.90;;;2.65;;
71715;SDS011;59568;52.128;5.434;2022-12-05T15:58:31;6.40;;;2.72;;
71715;SDS011;59568;52.128;5.434;2022-12-05T16:03:45;6.72;;;2.35;;
71715;SDS011;59568;52.128;5.434;2022-12-05T16:09:18;6.53;;;2.88;;
71715;SDS011;59568;52.128;5.434;2022-12-05T16:11:51;5.65;;;2.40;;
71715;SDS011;59568;52.128;5.434;2022-12-05T16:14:18;6.50;;;3.10;;
71715;SDS011;59568;52.128;5.434;2022-12-05T16:17:09;4.97;;;2.35;;
71715;SDS011;59568;52.128;5.434;2022-12-05T16:19:41;5.13;;;3.00;;
71715;SDS011;59568;52.128;5.434;2022-12-05T16:24:44;5.50;;;2.53;;
71715;SDS011;59568;52.128;5.434;2022-12-05T16:27:14;6.95;;;3.03;;
71715;SDS011;59568;52.128;5.434;2022-12-05T16:29:43;5.78;;;3.10;;
71715;SDS011;59568;52.128;5.434;2022-12-05T16:32:20;5.67;;;2.83;;
71715;SDS011;59568;52.128;5.434;2022-12-05T16:34:50;4.00;;;2.50;;
71715;SDS011;59568;52.128;5.434;2022-12-05T16:37:26;5.43;;;2.90;;
71715;SDS011;59568;52.128;5.434;2022-12-05T16:39:54;4.65;;;2.25;;
71715;SDS011;59568;52.128;5.434;2022-12-05T16:42:23;4.38;;;2.55;;
71715;SDS011;59568;52.128;5.434;2022-12-05T16:44:53;5.53;;;2.20;;
71715;SDS011;59568;52.128;5.434;2022-12-05T16:47:51;6.80;;;2.90;;
71715;SDS011;59568;52.128;5.434;2022-12-05T16:52:48;5.15;;;2.65;;
71715;SDS011;59568;52.128;5.434;2022-12-05T16:55:15;5.38;;;3.00;;
71715;SDS011;59568;52.128;5.434;2022-12-05T16:57:42;6.23;;;2.70;;
71715;SDS011;59568;52.128;5.434;2022-12-05T17:00:13;5.15;;;2.67;;
71715;SDS011;59568;52.128;5.434;2022-12-05T17:02:40;4.70;;;2.80;;
71715;SDS011;59568;52.128;5.434;2022-12-05T17:05:11;4.95;;;2.40;;
71715;SDS011;59568;52.128;5.434;2022-12-05T17:07:39;4.65;;;2.50;;
71715;SDS011;59568;52.128;5.434;2022-12-05T17:10:06;5.70;;;2.90;;
71715;SDS011;59568;52.128;5.434;2022-12-05T17:12:33;5.90;;;3.13;;
71715;SDS011;59568;52.128;5.434;2022-12-05T17:15:01;5.35;;;2.90;;
71715;SDS011;59568;52.128;5.434;2022-12-05T17:17:27;5.57;;;2.53;;
71715;SDS011;59568;52.128;5.434;2022-12-05T17:19:54;3.97;;;2.30;;
71715;SDS011;59568;52.128;5.434;2022-12-05T17:22:22;11.47;;;6.80;;
71715;SDS011;59568;52.128;5.434;2022-12-05T17:24:49;9.80;;;6.63;;
71715;SDS011;59568;52.128;5.434;2022-12-05T17:27:16;5.45;;;3.55;;
71715;SDS011;59568;52.128;5.434;2022-12-05T17:29:43;8.15;;;5.10;;
71715;SDS011;59568;52.128;5.434;2022-12-05T17:32:10;7.43;;;4.60;;
71715;SDS011;59568;52.128;5.434;2022-12-05T17:34:37;6.37;;;3.40;;
71715;SDS011;59568;52.128;5.434;2022-12-05T17:37:04;5.13;;;2.80;;
71715;SDS011;59568;52.128;5.434;2022-12-05T17:39:31;4.85;;;2.78;;
71715;SDS011;59568;52.128;5.434;2022-12-05T17:41:57;4.20;;;2.50;;
71715;SDS011;59568;52.128;5.434;2022-12-05T17:44:25;5.38;;;3.03;;
71715;SDS011;59568;52.128;5.434;2022-12-05T17:46:52;4.37;;;2.83;;
71715;SDS011;59568;52.128;5.434;2022-12-05T17:49:21;7.72;;;3.55;;
71715;SDS011;59568;52.128;5.434;2022-12-05T17:51:48;7.13;;;3.15;;
71715;SDS011;59568;52.128;5.434;2022-12-05T17:54:39;6.13;;;3.88;;
71715;SDS011;59568;52.128;5.434;2022-12-05T17:57:06;7.32;;;3.50;;
71715;SDS011;59568;52.128;5.434;2022-12-05T17:59:33;6.87;;;3.03;;
71715;SDS011;59568;52.128;5.434;2022-12-05T18:01:59;5.10;;;2.88;;
71715;SDS011;59568;52.128;5.434;2022-12-05T18:04:26;6.15;;;3.28;;
71715;SDS011;59568;52.128;5.434;2022-12-05T18:06:53;7.78;;;4.50;;
71715;SDS011;59568;52.128;5.434;2022-12-05T18:09:20;5.65;;;3.83;;
71715;SDS011;59568;52.128;5.434;2022-12-05T18:11:48;6.00;;;3.23;;
71715;SDS011;59568;52.128;5.434;2022-12-05T18:14:15;5.97;;;3.58;;
71715;SDS011;59568;52.128;5.434;2022-12-05T18:16:41;6.47;;;3.30;;
71715;SDS011;59568;52.128;5.434;2022-12-05T18:19:08;9.48;;;5.18;;
71715;SDS011;59568;52.128;5.434;2022-12-05T18:21:35;8.23;;;4.05;;
71715;SDS011;59568;52.128;5.434;2022-12-05T18:24:03;5.90;;;3.50;;
71715;SDS011;59568;52.128;5.434;2022-12-05T18:26:30;5.63;;;3.65;;
71715;SDS011;59568;52.128;5.434;2022-12-05T18:28:57;5.95;;;3.75;;
71715;SDS011;59568;52.128;5.434;2022-12-05T18:31:24;5.07;;;3.50;;
71715;SDS011;59568;52.128;5.434;2022-12-05T18:33:52;10.43;;;5.85;;
71715;SDS011;59568;52.128;5.434;2022-12-05T18:36:19;10.90;;;5.50;;
71715;SDS011;59568;52.128;5.434;2022-12-05T18:38:50;7.60;;;3.45;;
71715;SDS011;59568;52.128;5.434;2022-12-05T18:41:22;13.63;;;5.75;;
71715;SDS011;59568;52.128;5.434;2022-12-05T18:43:52;5.90;;;3.10;;
71715;SDS011;59568;52.128;5.434;2022-12-05T18:46:19;6.28;;;3.20;;
71715;SDS011;59568;52.128;5.434;2022-12-05T18:48:46;5.77;;;2.83;;
71715;SDS011;59568;52.128;5.434;2022-12-05T18:51:15;6.45;;;2.58;;
71715;SDS011;59568;52.128;5.434;2022-12-05T18:53:46;3.55;;;2.30;;
71715;SDS011;59568;52.128;5.434;2022-12-05T18:56:19;5.20;;;2.80;;
71715;SDS011;59568;52.128;5.434;2022-12-05T18:58:54;4.53;;;2.97;;
71715;SDS011;59568;52.128;5.434;2022-12-05T19:01:26;6.80;;;3.37;;
71715;SDS011;59568;52.128;5.434;2022-12-05T19:03:54;5.55;;;2.30;;
71715;SDS011;59568;52.128;5.434;2022-12-05T19:06:23;6.55;;;2.90;;
71715;SDS011;59568;52.128;5.434;2022-12-05T19:08:53;7.40;;;2.90;;
71715;SDS011;59568;52.128;5.434;2022-12-05T19:11:21;6.45;;;3.30;;
71715;SDS011;59568;52.128;5.434;2022-12-05T19:13:49;5.87;;;3.20;;
71715;SDS011;59568;52.128;5.434;2022-12-05T19:16:20;6.20;;;3.05;;
71715;SDS011;59568;52.128;5.434;2022-12-05T19:18:51;5.45;;;2.45;;
71715;SDS011;59568;52.128;5.434;2022-12-05T19:21:20;7.65;;;2.55;;
71715;SDS011;59568;52.128;5.434;2022-12-05T19:23:52;5.32;;;2.63;;
71715;SDS011;59568;52.128;5.434;2022-12-05T19:26:19;12.83;;;5.50;;
71715;SDS011;59568;52.128;5.434;2022-12-05T19:28:47;6.82;;;3.30;;
71715;SDS011;59568;52.128;5.434;2022-12-05T19:31:16;5.13;;;2.22;;
71715;SDS011;59568;52.128;5.434;2022-12-05T19:33:45;4.38;;;2.22;;
71715;SDS011;59568;52.128;5.434;2022-12-05T19:38:46;4.90;;;2.60;;
71715;SDS011;59568;52.128;5.434;2022-12-05T19:41:15;4.95;;;2.25;;
71715;SDS011;59568;52.128;5.434;2022-12-05T19:43:45;6.57;;;3.00;;
71715;SDS011;59568;52.128;5.434;2022-12-05T19:46:13;6.43;;;2.70;;
71715;SDS011;59568;52.128;5.434;2022-12-05T19:48:50;7.65;;;2.65;;
71715;SDS011;59568;52.128;5.434;2022-12-05T19:51:19;4.87;;;2.60;;
71715;SDS011;59568;52.128;5.434;2022-12-05T19:53:46;8.18;;;2.90;;
71715;SDS011;59568;52.128;5.434;2022-12-05T19:56:15;6.82;;;3.20;;
71715;SDS011;59568;52.128;5.434;2022-12-05T19:58:50;5.10;;;2.50;;
71715;SDS011;59568;52.128;5.434;2022-12-05T20:01:19;8.98;;;3.80;;
71715;SDS011;59568;52.128;5.434;2022-12-05T20:03:49;9.00;;;3.70;;
71715;SDS011;59568;52.128;5.434;2022-12-05T20:06:21;7.75;;;3.10;;
71715;SDS011;59568;52.128;5.434;2022-12-05T20:08:49;4.80;;;2.42;;
71715;SDS011;59568;52.128;5.434;2022-12-05T20:11:19;5.78;;;2.67;;